createdAt,value
2018-09-04T00:01:47.630Z,20.83
2018-09-04T00:04:17.791Z,20.86
2018-09-04T00:06:48.017Z,20.80
2018-09-04T00:09:18.135Z,20.79
2018-09-04T00:11:49.124Z,20.83
2018-09-04T00:14:19.224Z,20.84
2018-09-04T00:16:49.445Z,20.86
2018-09-04T00:19:19.530Z,20.83
2018-09-04T00:21:50.896Z,20.23
2018-09-04T00:24:21.088Z,20.82
2018-09-04T00:26:52.083Z,20.81
2018-09-04T00:29:22.994Z,20.78
2018-09-04T00:31:54.189Z,20.80
2018-09-04T00:34:24.366Z,20.81
2018-09-04T00:36:54.316Z,20.73
2018-09-04T00:39:24.277Z,20.74
2018-09-04T00:41:54.065Z,20.65
2018-09-04T00:44:24.116Z,20.66
2018-09-04T00:46:54.057Z,20.69
2018-09-04T00:49:23.811Z,20.64
2018-09-04T00:51:53.656Z,20.57
2018-09-04T00:54:23.491Z,20.62
2018-09-04T00:56:53.485Z,20.71
2018-09-04T00:59:23.458Z,20.68
2018-09-04T01:01:53.513Z,20.69
2018-09-04T01:04:23.408Z,20.69
2018-09-04T01:06:53.408Z,20.74
2018-09-04T01:09:24.076Z,20.89
2018-09-04T01:11:53.981Z,20.91
2018-09-04T01:14:23.880Z,20.94
2018-09-04T01:16:54.036Z,20.84
2018-09-04T01:19:24.176Z,20.68
2018-09-04T01:21:54.000Z,20.67
2018-09-04T01:24:23.832Z,20.75
2018-09-04T01:26:53.731Z,20.78
2018-09-04T01:29:23.635Z,20.82
2018-09-04T01:31:53.535Z,20.83
2018-09-04T01:34:23.447Z,20.83
2018-09-04T01:36:53.854Z,20.74
2018-09-04T01:39:23.641Z,20.58
2018-09-04T01:41:53.731Z,20.62
2018-09-04T01:44:23.698Z,20.67
2018-09-04T01:46:53.665Z,20.77
2018-09-04T01:49:23.790Z,20.74
2018-09-04T01:51:53.666Z,20.60
2018-09-04T01:54:23.963Z,20.58
2018-09-04T01:56:54.040Z,20.59
2018-09-04T01:59:23.965Z,20.70
2018-09-04T02:01:53.936Z,20.60
2018-09-04T02:04:23.819Z,20.64
2018-09-04T02:06:53.744Z,20.64
2018-09-04T02:09:25.512Z,20.55
2018-09-04T02:11:56.400Z,20.52
2018-09-04T02:14:26.369Z,20.41
2018-09-04T02:16:56.128Z,20.37
2018-09-04T02:19:26.962Z,20.43
2018-09-04T02:21:56.889Z,20.52
2018-09-04T02:24:26.729Z,20.60
2018-09-04T02:26:56.722Z,20.53
2018-09-04T02:29:26.556Z,20.56
2018-09-04T02:31:56.510Z,20.55
2018-09-04T02:34:26.321Z,20.55
2018-09-04T02:36:56.347Z,20.49
2018-09-04T02:39:26.168Z,20.56
2018-09-04T02:41:56.072Z,20.57
2018-09-04T02:44:26.378Z,20.52
2018-09-04T02:46:56.344Z,20.55
2018-09-04T02:49:26.279Z,20.49
2018-09-04T02:51:56.477Z,20.61
2018-09-04T02:54:26.572Z,20.52
2018-09-04T02:56:56.549Z,20.49
2018-09-04T02:59:26.487Z,20.46
2018-09-04T03:01:56.476Z,20.51
2018-09-04T03:04:27.525Z,20.48
2018-09-04T03:07:14.031Z,20.49
2018-09-04T03:09:47.010Z,20.41
2018-09-04T03:12:18.622Z,20.38
2018-09-04T03:14:48.617Z,20.30
2018-09-04T03:17:18.506Z,20.27
2018-09-04T03:19:48.699Z,20.26
2018-09-04T03:22:18.737Z,20.17
2018-09-04T03:24:48.990Z,20.22
2018-09-04T03:27:19.079Z,20.19
2018-09-04T03:29:49.345Z,20.25
2018-09-04T03:32:19.665Z,20.25
2018-09-04T03:34:49.666Z,20.36
2018-09-04T03:37:19.870Z,20.30
2018-09-04T03:39:50.189Z,20.36
2018-09-04T03:42:20.611Z,20.29
2018-09-04T03:44:51.679Z,20.33
2018-09-04T03:47:22.839Z,20.20
2018-09-04T03:49:53.255Z,20.17
2018-09-04T03:52:23.509Z,20.25
2018-09-04T03:54:53.494Z,20.47
2018-09-04T03:57:23.708Z,20.58
2018-09-04T03:59:53.919Z,20.64
2018-09-04T04:02:23.955Z,20.89
2018-09-04T04:04:54.081Z,21.18
2018-09-04T04:07:24.324Z,21.53
2018-09-04T04:09:54.504Z,21.70
2018-09-04T04:12:24.603Z,21.84
2018-09-04T04:14:54.653Z,21.86
2018-09-04T04:17:24.907Z,21.86
2018-09-04T04:19:54.998Z,21.71
2018-09-04T04:22:25.154Z,21.61
2018-09-04T04:24:55.146Z,21.73
2018-09-04T04:27:25.228Z,21.98
2018-09-04T04:29:55.417Z,22.23
2018-09-04T04:32:27.132Z,22.22
2018-09-04T04:34:57.411Z,22.37
2018-09-04T04:37:28.336Z,22.50
2018-09-04T04:39:58.716Z,22.64
2018-09-04T04:42:28.776Z,23.07
2018-09-04T04:44:59.262Z,23.79
2018-09-04T04:47:34.332Z,24.86
2018-09-04T04:50:04.433Z,25.40
2018-09-04T04:52:34.473Z,25.42
2018-09-04T04:55:04.771Z,25.17
2018-09-04T04:57:34.988Z,24.94
2018-09-04T05:00:05.400Z,24.62
2018-09-04T05:02:35.516Z,24.20
2018-09-04T05:05:05.809Z,24.39
2018-09-04T05:07:36.325Z,24.44
2018-09-04T05:10:06.607Z,24.09
2018-09-04T05:12:36.931Z,24.25
2018-09-04T05:15:07.450Z,24.25
2018-09-04T05:17:37.656Z,23.79
2018-09-04T05:20:09.851Z,23.91
2018-09-04T05:22:40.049Z,23.91
2018-09-04T05:25:10.010Z,24.17
2018-09-04T05:27:40.315Z,24.43
2018-09-04T05:30:11.005Z,24.79
2018-09-04T05:32:45.649Z,25.20
2018-09-04T05:35:17.424Z,26.31
2018-09-04T05:37:49.755Z,27.90
2018-09-04T05:40:19.945Z,29.76
2018-09-04T05:42:54.409Z,29.90
2018-09-04T05:45:27.214Z,31.19
2018-09-04T05:48:05.944Z,32.10
2018-09-04T05:50:36.316Z,33.53
2018-09-04T05:53:06.717Z,34.37
2018-09-04T05:55:37.267Z,34.90
2018-09-04T05:58:07.851Z,34.55
2018-09-04T06:00:48.811Z,33.17
2018-09-04T06:03:19.137Z,33.88
2018-09-04T06:05:49.308Z,34.23
2018-09-04T06:08:20.110Z,33.12
2018-09-04T06:10:50.519Z,32.74
2018-09-04T06:13:22.377Z,32.69
2018-09-04T06:15:52.582Z,31.70
2018-09-04T06:18:23.941Z,31.37
2018-09-04T06:20:54.332Z,32.47
2018-09-04T06:23:24.044Z,33.03
2018-09-04T06:25:53.837Z,32.45
2018-09-04T06:28:25.001Z,34.24
2018-09-04T06:30:55.395Z,35.86
2018-09-04T06:33:25.571Z,36.38
2018-09-04T06:35:56.054Z,36.68
2018-09-04T06:38:26.493Z,36.78
2018-09-04T06:40:56.871Z,36.28
2018-09-04T06:43:26.956Z,36.48
2018-09-04T06:45:57.107Z,36.41
2018-09-04T06:48:27.415Z,36.01
2018-09-04T06:50:58.713Z,36.56
2018-09-04T06:53:30.820Z,35.81
2018-09-04T06:56:01.346Z,35.10
2018-09-04T06:58:31.406Z,35.86
2018-09-04T07:01:01.520Z,36.15
2018-09-04T07:03:32.138Z,34.90
2018-09-04T07:06:02.400Z,34.08
2018-09-04T07:08:33.300Z,35.02
2018-09-04T07:11:03.593Z,33.93
2018-09-04T07:13:33.485Z,32.98
2018-09-04T07:16:04.793Z,32.26
2018-09-04T07:18:35.311Z,31.92
2018-09-04T07:21:05.751Z,31.18
2018-09-04T07:23:36.459Z,30.22
2018-09-04T07:26:07.008Z,29.92
2018-09-04T07:28:37.435Z,29.73
2018-09-04T07:31:08.298Z,29.49
2018-09-04T07:33:38.551Z,29.05
2018-09-04T07:36:08.928Z,28.54
2018-09-04T07:38:38.813Z,28.13
2018-09-04T07:41:08.913Z,27.77
2018-09-04T07:43:41.019Z,27.92
2018-09-04T07:46:11.509Z,28.26
2018-09-04T07:48:41.489Z,27.73
2018-09-04T07:51:11.804Z,27.65
2018-09-04T07:53:42.878Z,27.63
2018-09-04T07:56:13.744Z,27.71
2018-09-04T07:58:43.643Z,27.71
2018-09-04T08:01:13.328Z,27.55
2018-09-04T08:03:43.058Z,27.67
2018-09-04T08:06:12.873Z,27.49
2018-09-04T08:08:42.708Z,27.51
2018-09-04T08:11:12.631Z,27.52
2018-09-04T08:13:42.403Z,27.34
2018-09-04T08:16:12.196Z,27.35
2018-09-04T08:18:42.001Z,27.38
2018-09-04T08:21:11.734Z,27.35
2018-09-04T08:23:41.539Z,27.32
2018-09-04T08:26:12.437Z,27.59
2018-09-04T08:28:43.376Z,27.69
2018-09-04T08:31:13.084Z,27.59
2018-09-04T08:33:43.425Z,27.72
2018-09-04T08:36:13.295Z,27.90
2018-09-04T08:38:48.231Z,28.05
2018-09-04T08:41:17.917Z,28.06
2018-09-04T08:43:50.021Z,28.16
2018-09-04T08:46:20.337Z,28.18
2018-09-04T08:48:50.628Z,28.25
2018-09-04T08:51:20.496Z,28.36
2018-09-04T08:53:50.437Z,28.74
2018-09-04T08:56:20.480Z,28.91
2018-09-04T08:58:50.656Z,29.12
2018-09-04T09:01:21.451Z,29.30
2018-09-04T09:03:51.617Z,29.95
2018-09-04T09:06:21.639Z,29.97
2018-09-04T09:08:51.300Z,30.35
2018-09-04T09:11:21.255Z,30.22
2018-09-04T09:13:51.360Z,30.26
2018-09-04T09:16:21.667Z,30.52
2018-09-04T09:18:51.843Z,30.70
2018-09-04T09:21:21.925Z,30.40
2018-09-04T09:23:51.766Z,30.80
2018-09-04T09:26:21.744Z,30.77
2018-09-04T09:28:53.419Z,30.75
2018-09-04T09:31:23.369Z,30.71
2018-09-04T09:33:53.869Z,30.49
2018-09-04T09:36:23.701Z,30.08
2018-09-04T09:38:53.547Z,29.96
2018-09-04T09:41:23.676Z,29.79
2018-09-04T09:43:53.545Z,29.70
2018-09-04T09:46:23.060Z,29.59
2018-09-04T09:48:53.523Z,29.41
2018-09-04T09:51:23.853Z,29.43
2018-09-04T09:53:53.558Z,29.36
2018-09-04T09:56:23.603Z,29.37
2018-09-04T09:58:53.376Z,29.23
2018-09-04T10:01:27.963Z,29.30
2018-09-04T10:04:04.360Z,29.17
2018-09-04T10:06:34.157Z,29.31
2018-09-04T10:09:05.657Z,29.23
2018-09-04T10:11:35.642Z,29.15
2018-09-04T10:14:05.622Z,28.96
2018-09-04T10:16:35.592Z,28.90
2018-09-04T10:19:05.907Z,28.63
2018-09-04T10:21:35.683Z,28.65
2018-09-04T10:24:05.668Z,28.50
2018-09-04T10:26:36.148Z,28.31
2018-09-04T10:29:05.945Z,28.34
2018-09-04T10:31:35.711Z,28.29
2018-09-04T10:34:06.620Z,28.16
2018-09-04T10:36:36.431Z,28.09
2018-09-04T10:40:11.511Z,28.05
2018-09-04T10:42:41.451Z,28.18
2018-09-04T10:45:16.249Z,28.32
2018-09-04T10:47:46.963Z,28.05
2018-09-04T10:50:17.009Z,28.15
2018-09-04T10:52:46.951Z,28.37
2018-09-04T10:55:16.957Z,28.19
2018-09-04T10:57:46.879Z,28.15
2018-09-04T11:00:17.820Z,28.20
2018-09-04T11:02:48.106Z,28.03
2018-09-04T11:05:18.096Z,28.23
2018-09-04T11:07:47.941Z,28.19
2018-09-04T11:10:17.867Z,28.31
2018-09-04T11:12:47.694Z,28.27
2018-09-04T11:15:21.393Z,28.26
2018-09-04T11:17:51.428Z,28.37
2018-09-04T11:20:22.953Z,28.50
2018-09-04T11:22:52.794Z,28.40
2018-09-04T11:25:23.720Z,28.45
2018-09-04T11:27:53.695Z,28.48
2018-09-04T11:30:24.476Z,28.37
2018-09-04T11:32:55.209Z,28.38
2018-09-04T11:35:27.480Z,28.36
2018-09-04T11:37:57.309Z,28.35
2018-09-04T11:40:29.821Z,28.37
2018-09-04T11:43:00.007Z,28.44
2018-09-04T11:45:30.097Z,28.57
2018-09-04T11:48:00.449Z,28.44
2018-09-04T11:50:30.819Z,28.40
2018-09-04T11:53:00.687Z,28.46
2018-09-04T12:16:01.146Z,28.49
2018-09-04T12:18:31.818Z,28.41
2018-09-04T12:21:06.148Z,28.45
2018-09-04T12:23:36.751Z,28.60
2018-09-04T12:26:07.822Z,28.52
2018-09-04T12:28:38.506Z,28.56
2018-09-04T12:31:09.323Z,28.60
2018-09-04T12:33:39.446Z,28.69
2018-09-04T12:36:09.882Z,28.55
2018-09-04T12:38:42.681Z,28.56
2018-09-04T12:41:15.016Z,28.80
2018-09-04T12:43:46.520Z,28.87
2018-09-04T12:46:17.052Z,28.72
2018-09-04T12:48:51.930Z,28.80
2018-09-04T12:51:21.882Z,28.56
2018-09-04T12:53:52.219Z,28.37
2018-09-04T12:56:22.060Z,28.47
2018-09-04T12:58:52.000Z,28.57
2018-09-04T13:01:21.996Z,28.65
2018-09-04T13:03:51.801Z,28.61
2018-09-04T13:06:21.880Z,28.41
2018-09-04T13:08:52.645Z,28.58
2018-09-04T13:11:22.553Z,28.69
2018-09-04T13:13:52.665Z,28.75
2018-09-04T13:16:22.294Z,28.73
2018-09-04T13:18:52.273Z,28.64
2018-09-04T13:21:23.752Z,28.67
2018-09-04T13:23:53.649Z,28.77
2018-09-04T13:26:23.413Z,28.57
2018-09-04T13:28:54.299Z,28.51
2018-09-04T13:31:24.133Z,28.33
2018-09-04T13:33:54.830Z,27.91
2018-09-04T13:36:24.719Z,27.81
2018-09-04T13:38:54.584Z,28.09
2018-09-04T13:41:24.776Z,28.20
2018-09-04T13:43:56.022Z,28.29
2018-09-04T13:46:26.939Z,28.35
2018-09-04T13:48:57.668Z,28.45
2018-09-04T13:51:27.542Z,28.35
2018-09-04T13:53:58.123Z,28.18
2018-09-04T13:56:28.043Z,28.28
2018-09-04T13:58:57.973Z,28.15
2018-09-04T14:01:29.067Z,28.15
2018-09-04T14:03:58.918Z,28.07
2018-09-04T14:06:28.863Z,27.89
2018-09-04T14:08:58.831Z,27.77
2018-09-04T14:11:28.662Z,27.78
2018-09-04T14:14:00.403Z,27.90
2018-09-04T14:16:43.149Z,27.96
2018-09-04T14:19:01.370Z,28.01
2018-09-04T14:21:31.315Z,28.09
2018-09-04T14:24:01.311Z,28.13
2018-09-04T14:26:31.499Z,28.05
2018-09-04T14:29:08.261Z,28.12
2018-09-04T14:31:32.271Z,27.81
2018-09-04T14:34:02.260Z,27.71
2018-09-04T14:36:32.308Z,27.78
2018-09-04T14:39:02.143Z,27.81
2018-09-04T14:41:33.126Z,27.80
2018-09-04T14:44:06.309Z,27.83
2018-09-04T14:46:37.589Z,27.84
2018-09-04T14:49:08.903Z,27.66
2018-09-04T14:51:39.019Z,27.46
2018-09-04T14:54:08.919Z,27.68
2018-09-04T14:56:41.315Z,27.57
2018-09-04T14:59:11.234Z,27.60
2018-09-04T15:01:44.364Z,27.60
2018-09-04T15:04:14.622Z,27.61
2018-09-04T15:06:44.670Z,27.64
2018-09-04T15:09:14.509Z,27.38
2018-09-04T15:11:44.740Z,27.08
2018-09-04T15:14:14.488Z,27.18
2018-09-04T15:16:44.284Z,27.12
2018-09-04T15:19:14.110Z,27.10
2018-09-04T15:21:44.013Z,27.04
2018-09-04T15:24:13.907Z,27.06
2018-09-04T15:26:43.721Z,27.04
2018-09-04T15:29:13.588Z,27.02
2018-09-04T15:31:43.448Z,26.93
2018-09-04T15:34:13.884Z,26.88
2018-09-04T15:36:43.818Z,26.87
2018-09-04T15:39:13.687Z,26.80
2018-09-04T15:41:43.639Z,26.80
2018-09-04T15:44:13.711Z,26.76
2018-09-04T15:46:44.118Z,26.70
2018-09-04T15:49:19.691Z,26.56
2018-09-04T15:51:49.627Z,26.48
2018-09-04T15:54:24.977Z,26.30
2018-09-04T15:56:54.916Z,26.28
2018-09-04T15:59:25.873Z,26.16
2018-09-04T16:01:55.872Z,26.08
2018-09-04T16:04:26.460Z,26.07
2018-09-04T16:06:56.361Z,25.92
2018-09-04T16:09:26.549Z,25.92
2018-09-04T16:11:56.621Z,25.88
2018-09-04T16:14:26.485Z,25.64
2018-09-04T16:16:56.276Z,25.69
2018-09-04T16:19:27.209Z,25.68
2018-09-04T16:21:57.099Z,25.58
2018-09-04T16:24:26.923Z,25.56
2018-09-04T16:26:56.685Z,25.43
2018-09-04T16:29:26.780Z,25.35
2018-09-04T16:31:57.743Z,25.36
2018-09-04T16:34:29.640Z,25.32
2018-09-04T16:36:59.721Z,25.23
2018-09-04T16:39:29.843Z,25.18
2018-09-04T16:41:59.853Z,25.17
2018-09-04T16:44:31.055Z,25.14
2018-09-04T16:47:01.394Z,25.04
2018-09-04T16:49:31.305Z,24.88
2018-09-04T16:52:02.570Z,24.99
2018-09-04T16:54:32.974Z,24.92
2018-09-04T16:57:02.858Z,24.85
2018-09-04T16:59:33.899Z,24.65
2018-09-04T17:02:04.154Z,24.64
2018-09-04T17:04:33.845Z,24.58
2018-09-04T17:07:07.673Z,24.44
2018-09-04T17:09:38.925Z,24.48
2018-09-04T17:12:09.789Z,24.44
2018-09-04T17:14:39.872Z,24.41
2018-09-04T17:17:10.883Z,24.36
2018-09-04T17:19:41.953Z,24.29
2018-09-04T17:22:12.599Z,24.22
2018-09-04T17:24:42.356Z,24.14
2018-09-04T17:27:12.404Z,24.11
2018-09-04T17:29:42.204Z,24.10
2018-09-04T17:32:14.496Z,24.06
2018-09-04T17:34:46.888Z,24.07
2018-09-04T17:37:20.660Z,24.05
2018-09-04T17:39:52.264Z,23.95
2018-09-04T17:42:23.636Z,23.83
2018-09-04T17:44:58.442Z,23.81
2018-09-04T17:47:32.160Z,23.85
2018-09-04T17:52:52.551Z,23.40
2018-09-04T17:55:27.411Z,23.25
2018-09-04T17:58:02.194Z,23.53
2018-09-04T18:00:33.435Z,23.60
2018-09-04T18:03:06.082Z,23.60
2018-09-04T18:05:42.730Z,23.56
2018-09-04T18:08:18.065Z,23.49
2018-09-04T18:10:55.512Z,23.43
2018-09-04T18:13:32.414Z,23.28
2018-09-04T18:16:05.019Z,23.23
2018-09-04T18:18:35.284Z,23.27
2018-09-04T18:21:05.529Z,23.21
2018-09-04T18:23:35.847Z,23.26
2018-09-04T18:26:08.953Z,23.16
2018-09-04T18:28:40.444Z,23.08
2018-09-04T18:31:11.590Z,23.15
2018-09-04T18:33:42.002Z,23.10
2018-09-04T18:36:13.270Z,23.13
2018-09-04T18:38:43.594Z,23.06
2018-09-04T18:41:13.718Z,23.04
2018-09-04T18:43:43.746Z,22.89
2018-09-04T18:46:14.442Z,22.79
2018-09-04T18:48:45.146Z,22.74
2018-09-04T18:51:15.080Z,22.80
2018-09-04T18:53:45.494Z,22.79
2018-09-04T18:56:16.383Z,22.81
2018-09-04T18:58:46.456Z,22.81
2018-09-04T19:01:16.576Z,22.75
2018-09-04T19:03:48.307Z,22.70
2018-09-04T19:06:18.275Z,22.75
2018-09-04T19:08:51.038Z,22.73
2018-09-04T19:11:23.061Z,22.70
2018-09-04T19:13:54.856Z,22.66
2018-09-04T19:16:27.138Z,22.71
2018-09-04T19:19:15.065Z,22.79
2018-09-04T19:21:45.663Z,22.83
2018-09-04T19:24:18.133Z,22.72
2018-09-04T19:27:06.931Z,22.61
2018-09-04T19:29:37.701Z,22.56
2018-09-04T19:32:13.437Z,22.50
2018-09-04T19:34:43.535Z,22.42
2018-09-04T19:37:15.092Z,22.44
2018-09-04T19:39:46.028Z,22.63
2018-09-04T19:42:15.789Z,22.80
2018-09-04T19:44:45.800Z,22.86
2018-09-04T19:47:15.810Z,22.81
2018-09-04T19:49:45.781Z,22.68
2018-09-04T19:52:15.655Z,22.76
2018-09-04T19:54:45.940Z,22.67
2018-09-04T19:57:15.784Z,22.65
2018-09-04T19:59:45.626Z,22.65
2018-09-04T20:02:15.809Z,22.72
2018-09-04T20:04:45.480Z,22.69
2018-09-04T20:07:15.370Z,22.68
2018-09-04T20:09:45.241Z,22.68
2018-09-04T20:12:16.378Z,22.80
2018-09-04T20:14:46.497Z,22.81
2018-09-04T20:17:16.603Z,22.81
2018-09-04T20:19:46.438Z,22.83
2018-09-04T20:22:16.539Z,22.87
2018-09-04T20:24:46.357Z,22.82
2018-09-04T20:27:16.181Z,22.86
2018-09-04T20:29:46.211Z,22.97
2018-09-04T20:32:16.093Z,23.00
2018-09-04T20:34:45.973Z,23.13
2018-09-04T20:37:15.753Z,23.12
2018-09-04T20:39:45.682Z,23.11
2018-09-04T20:42:16.355Z,23.20
2018-09-04T20:44:46.410Z,23.27
2018-09-04T20:47:17.212Z,23.31
2018-09-04T20:49:48.008Z,23.25
2018-09-04T20:52:18.051Z,23.30
2018-09-04T20:54:47.922Z,23.38
2018-09-04T20:57:25.002Z,23.46
2018-09-04T21:00:08.021Z,23.47
2018-09-04T21:02:48.658Z,23.46
2018-09-04T21:05:29.485Z,23.50
2018-09-04T21:08:17.266Z,23.52
2018-09-04T21:10:48.322Z,23.61
2018-09-04T21:13:18.136Z,23.59
2018-09-04T21:15:48.122Z,23.67
2018-09-04T21:18:20.552Z,23.74
2018-09-04T21:20:50.390Z,23.76
2018-09-04T21:23:20.572Z,23.82
2018-09-04T21:25:50.444Z,23.81
2018-09-04T21:28:20.675Z,23.76
2018-09-04T21:30:50.462Z,23.78
2018-09-04T21:33:20.497Z,23.82
2018-09-04T21:35:51.300Z,23.77
2018-09-04T21:38:22.472Z,23.60
2018-09-04T21:40:52.244Z,23.67
2018-09-04T21:43:22.223Z,23.74
2018-09-04T21:45:53.253Z,23.69
2018-09-04T21:48:23.149Z,23.55
2018-09-04T21:50:52.873Z,23.67
2018-09-04T21:53:22.595Z,23.70
2018-09-04T21:55:52.475Z,23.77
2018-09-04T21:58:22.114Z,23.78
2018-09-04T22:00:52.242Z,23.79
2018-09-04T22:03:22.051Z,23.70
2018-09-04T22:05:51.890Z,23.60
2018-09-04T22:08:21.670Z,23.36
2018-09-04T22:10:51.605Z,23.41
2018-09-04T22:13:21.401Z,23.40
2018-09-04T22:15:51.260Z,23.39
2018-09-04T22:18:21.022Z,23.36
2018-09-04T22:20:50.856Z,23.35
2018-09-04T22:23:20.639Z,23.32
2018-09-04T22:25:54.973Z,23.34
2018-09-04T22:28:24.662Z,23.41
2018-09-04T22:30:54.598Z,23.42
2018-09-04T22:33:24.342Z,23.29
2018-09-04T22:35:54.137Z,23.28
2018-09-04T22:38:23.937Z,23.13
2018-09-04T22:40:53.753Z,22.91
2018-09-04T22:43:23.677Z,22.94
2018-09-04T22:45:53.766Z,22.98
2018-09-04T22:48:23.543Z,23.06
2018-09-04T22:50:58.208Z,22.76
2018-09-04T22:53:28.058Z,23.35
2018-09-04T22:55:58.153Z,23.43
